Long Lake, Minnesota
Current Conditions -  °F | °C
As of 5:24 AM on Sunday 23 Nov 2014 (Local Time) from KMIC Reporting Station
Haze Haze  
Wind Chill: 44°   Ceiling: 1300
Heat Index: 44°   Visibility: 0.75mi
Dew Point: 43°   Wind: 3mph
Humidity: 96%   Direction: 260°W
Pressure: 29.42"   Gusts: NA
Location:  44.99°N, 93.57°W
Report Text: KMIC 231124Z AUTO 26003KT 3/4SM BR VV013 07/06 A2942 RMK AO2 T00670061
Loading
Personal Weather Stations






























Interactive Weather Map New forecast layout! Learn more

10-Day Weather Forecast

Advertisements
Track Severe Weather on mobile